createdAt,value
2023-03-21T00:00:32.907Z,6.65
2023-03-21T00:01:32.832Z,6.65
2023-03-21T00:02:32.921Z,6.65
2023-03-21T00:03:32.864Z,6.65
2023-03-21T00:04:44.569Z,6.65
2023-03-21T00:05:32.850Z,6.65
2023-03-21T00:06:32.772Z,6.65
2023-03-21T00:07:32.780Z,6.65
2023-03-21T00:08:32.762Z,6.65
2023-03-21T00:09:32.731Z,6.65
2023-03-21T00:10:40.778Z,6.65
2023-03-21T00:11:32.720Z,6.65
2023-03-21T00:12:32.709Z,6.64
2023-03-21T00:13:33.046Z,6.64
2023-03-21T00:14:32.709Z,6.64
2023-03-21T00:15:44.032Z,6.63
2023-03-21T00:16:35.228Z,6.62
2023-03-21T00:17:32.834Z,6.61
2023-03-21T00:18:32.669Z,6.60
2023-03-21T00:19:32.645Z,6.58
2023-03-21T00:20:32.682Z,6.58
2023-03-21T00:21:55.252Z,6.57
2023-03-21T00:22:32.617Z,6.56
2023-03-21T00:23:32.655Z,6.54
2023-03-21T00:24:32.588Z,6.53
2023-03-21T00:25:32.587Z,6.52
2023-03-21T00:26:32.590Z,6.51
2023-03-21T00:27:53.372Z,6.50
2023-03-21T00:28:32.551Z,6.49
2023-03-21T00:29:32.639Z,6.48
2023-03-21T00:30:32.556Z,6.47
2023-03-21T00:31:32.519Z,6.46
2023-03-21T00:32:35.570Z,6.44
2023-03-21T00:33:32.496Z,6.43
2023-03-21T00:34:43.126Z,6.42
2023-03-21T00:35:57.935Z,6.40
2023-03-21T00:36:32.560Z,6.39
2023-03-21T00:37:32.483Z,6.37
2023-03-21T00:38:32.549Z,6.36
2023-03-21T00:39:32.445Z,6.35
2023-03-21T00:40:35.337Z,6.35
2023-03-21T00:41:41.895Z,6.35
2023-03-21T00:42:32.410Z,6.35
2023-03-21T00:43:32.417Z,6.34
2023-03-21T00:44:32.393Z,6.34
2023-03-21T00:45:32.587Z,6.34
2023-03-21T00:46:42.770Z,6.33
2023-03-21T00:47:32.452Z,6.33
2023-03-21T00:48:32.458Z,6.33
2023-03-21T00:49:32.329Z,6.33
2023-03-21T00:50:32.349Z,6.32
2023-03-21T00:51:32.308Z,6.32
2023-03-21T00:52:40.583Z,6.32
2023-03-21T00:53:32.307Z,6.31
2023-03-21T00:54:32.311Z,6.30
2023-03-21T00:55:32.384Z,6.30
2023-03-21T00:56:32.278Z,6.30
2023-03-21T00:57:38.505Z,6.29
2023-03-21T00:58:32.262Z,6.29
2023-03-21T00:59:32.400Z,6.28
2023-03-21T01:00:32.268Z,6.28
2023-03-21T01:01:32.444Z,6.29
2023-03-21T01:02:32.248Z,6.29
2023-03-21T01:03:32.214Z,6.29
2023-03-21T01:04:32.198Z,6.30
2023-03-21T01:05:32.174Z,6.30
2023-03-21T01:06:32.158Z,6.30
2023-03-21T01:07:32.158Z,6.30
2023-03-21T01:08:44.658Z,6.30
2023-03-21T01:09:32.175Z,6.30
2023-03-21T01:10:32.119Z,6.30
2023-03-21T01:11:32.114Z,6.30
2023-03-21T01:12:32.177Z,6.30
2023-03-21T01:13:34.627Z,6.29
2023-03-21T01:14:32.078Z,6.29
2023-03-21T01:15:32.092Z,6.28
2023-03-21T01:16:32.156Z,6.28
2023-03-21T01:17:32.059Z,6.27
2023-03-21T01:18:32.039Z,6.26
2023-03-21T01:19:50.234Z,6.25
2023-03-21T01:20:32.050Z,6.24
2023-03-21T01:21:32.028Z,6.22
2023-03-21T01:22:32.146Z,6.21
2023-03-21T01:23:31.995Z,6.20
2023-03-21T01:24:32.481Z,6.19
2023-03-21T01:25:32.143Z,6.18
2023-03-21T01:26:31.976Z,6.18
2023-03-21T01:27:31.953Z,6.18
2023-03-21T01:28:32.038Z,6.17
2023-03-21T01:29:31.958Z,6.17
2023-03-21T01:30:37.014Z,6.17
2023-03-21T01:31:32.103Z,6.17
2023-03-21T01:32:31.912Z,6.18
2023-03-21T01:33:31.894Z,6.18
2023-03-21T01:34:31.980Z,6.18
2023-03-21T01:35:37.431Z,6.19
2023-03-21T01:36:31.901Z,6.19
2023-03-21T01:37:31.937Z,6.20
2023-03-21T01:38:31.831Z,6.20
2023-03-21T01:39:31.846Z,6.21
2023-03-21T01:40:31.976Z,6.21
2023-03-21T01:41:47.276Z,6.20
2023-03-21T01:42:31.862Z,6.20
2023-03-21T01:43:31.794Z,6.19
2023-03-21T01:44:31.839Z,6.18
2023-03-21T01:45:31.803Z,6.17
2023-03-21T01:46:34.787Z,6.16
2023-03-21T01:47:31.890Z,6.15
2023-03-21T01:48:31.741Z,6.15
2023-03-21T01:49:31.732Z,6.14
2023-03-21T01:50:31.768Z,6.14
2023-03-21T01:51:31.721Z,6.14
2023-03-21T01:52:39.411Z,6.14
2023-03-21T01:53:31.715Z,6.14
2023-03-21T01:54:31.692Z,6.14
2023-03-21T01:55:31.676Z,6.14
2023-03-21T01:56:31.651Z,6.14
2023-03-21T01:57:40.480Z,6.14
2023-03-21T01:58:31.654Z,6.13
2023-03-21T01:59:31.637Z,6.12
2023-03-21T02:00:31.658Z,6.12
2023-03-21T02:01:31.611Z,6.12
2023-03-21T02:02:31.632Z,6.12
2023-03-21T02:03:35.955Z,6.12
2023-03-21T02:04:31.581Z,6.12
2023-03-21T02:05:31.608Z,6.12
2023-03-21T02:06:31.565Z,6.12
2023-03-21T02:07:31.560Z,6.13
2023-03-21T02:08:39.142Z,6.13
2023-03-21T02:09:31.565Z,6.14
2023-03-21T02:10:31.515Z,6.15
2023-03-21T02:11:31.503Z,6.15
2023-03-21T02:12:31.495Z,6.16
2023-03-21T02:13:31.498Z,6.17
2023-03-21T02:14:31.490Z,6.19
2023-03-21T02:15:31.484Z,6.19
2023-03-21T02:16:31.525Z,6.20
2023-03-21T02:17:31.453Z,6.20
2023-03-21T02:18:31.544Z,6.20
2023-03-21T02:19:37.170Z,6.20
2023-03-21T02:20:31.470Z,6.20
2023-03-21T02:21:31.680Z,6.20
2023-03-21T02:22:31.411Z,6.20
2023-03-21T02:23:31.406Z,6.21
2023-03-21T02:24:31.516Z,6.21
2023-03-21T02:25:31.391Z,6.22
2023-03-21T02:26:41.183Z,6.23
2023-03-21T02:27:31.360Z,6.23
2023-03-21T02:28:31.335Z,6.23
2023-03-21T02:29:31.354Z,6.23
2023-03-21T02:30:37.499Z,6.22
2023-03-21T02:31:31.368Z,6.21
2023-03-21T02:32:37.333Z,6.21
2023-03-21T02:33:31.295Z,6.20
2023-03-21T02:34:31.343Z,6.19
2023-03-21T02:35:31.306Z,6.18
2023-03-21T02:36:31.332Z,6.17
2023-03-21T02:37:37.598Z,6.16
2023-03-21T02:38:31.246Z,6.15
2023-03-21T02:39:31.238Z,6.14
2023-03-21T02:40:31.335Z,6.13
2023-03-21T02:41:38.278Z,6.12
2023-03-21T02:42:31.204Z,6.11
2023-03-21T02:43:31.183Z,6.09
2023-03-21T02:44:31.176Z,6.07
2023-03-21T02:45:31.192Z,6.05
2023-03-21T02:46:41.685Z,6.04
2023-03-21T02:47:31.185Z,6.02
2023-03-21T02:48:44.516Z,6.01
2023-03-21T02:49:31.131Z,6.01
2023-03-21T02:50:31.117Z,6.01
2023-03-21T02:51:31.129Z,6.01
2023-03-21T02:52:38.526Z,6.00
2023-03-21T02:53:31.098Z,5.99
2023-03-21T02:54:45.667Z,5.98
2023-03-21T02:55:31.098Z,5.96
2023-03-21T02:56:31.054Z,5.95
2023-03-21T02:57:41.624Z,5.93
2023-03-21T02:58:31.043Z,5.91
2023-03-21T02:59:31.025Z,5.90
2023-03-21T03:00:31.179Z,5.89
2023-03-21T03:01:31.047Z,5.89
2023-03-21T03:02:30.993Z,5.89
2023-03-21T03:03:34.728Z,5.89
2023-03-21T03:04:31.116Z,5.90
2023-03-21T03:05:31.001Z,5.90
2023-03-21T03:06:30.960Z,5.91
2023-03-21T03:07:30.955Z,5.91
2023-03-21T03:08:42.894Z,5.91
2023-03-21T03:09:30.949Z,5.90
2023-03-21T03:10:31.073Z,5.90
2023-03-21T03:11:30.909Z,5.88
2023-03-21T03:12:30.893Z,5.87
2023-03-21T03:13:30.944Z,5.85
2023-03-21T03:14:49.979Z,5.84
2023-03-21T03:15:30.928Z,5.85
2023-03-21T03:16:30.971Z,5.87
2023-03-21T03:17:30.860Z,5.90
2023-03-21T03:18:30.868Z,5.92
2023-03-21T03:19:34.421Z,5.94
2023-03-21T03:20:30.833Z,5.95
2023-03-21T03:21:30.815Z,5.97
2023-03-21T03:22:30.803Z,5.98
2023-03-21T03:23:30.799Z,6.00
2023-03-21T03:24:30.793Z,6.01
2023-03-21T03:25:42.030Z,6.02
2023-03-21T03:26:30.756Z,6.03
2023-03-21T03:27:30.747Z,6.04
2023-03-21T03:28:30.766Z,6.06
2023-03-21T03:29:30.752Z,6.07
2023-03-21T03:30:41.191Z,6.07
2023-03-21T03:31:30.854Z,6.08
2023-03-21T03:32:30.756Z,6.08
2023-03-21T03:33:30.687Z,6.09
2023-03-21T03:34:30.670Z,6.09
2023-03-21T03:35:30.750Z,6.09
2023-03-21T03:36:32.847Z,6.09
2023-03-21T03:37:30.664Z,6.09
2023-03-21T03:38:30.712Z,6.08
2023-03-21T03:39:30.634Z,6.08
2023-03-21T03:40:30.623Z,6.07
2023-03-21T03:41:50.227Z,6.06
2023-03-21T03:42:30.633Z,6.05
2023-03-21T03:43:30.579Z,6.03
2023-03-21T03:44:30.742Z,6.02
2023-03-21T03:45:30.571Z,6.01
2023-03-21T03:46:30.602Z,6.01
2023-03-21T03:47:34.892Z,6.00
2023-03-21T03:48:30.693Z,5.99
2023-03-21T03:49:30.518Z,5.97
2023-03-21T03:50:30.514Z,5.95
2023-03-21T03:51:30.606Z,5.94
2023-03-21T03:52:30.526Z,5.92
2023-03-21T03:53:30.486Z,5.91
2023-03-21T03:54:30.469Z,5.91
2023-03-21T03:55:30.464Z,5.90
2023-03-21T03:56:30.491Z,5.87
2023-03-21T03:57:30.462Z,5.82
2023-03-21T03:58:43.016Z,5.76
2023-03-21T03:59:30.430Z,5.70
2023-03-21T04:00:30.432Z,5.64
2023-03-21T04:01:30.559Z,5.60
2023-03-21T04:02:30.485Z,5.58
2023-03-21T04:03:39.236Z,5.58
2023-03-21T04:04:30.401Z,5.57
2023-03-21T04:05:30.468Z,5.56
2023-03-21T04:06:30.430Z,5.54
2023-03-21T04:07:30.490Z,5.51
2023-03-21T04:08:30.352Z,5.48
2023-03-21T04:09:43.188Z,5.46
2023-03-21T04:10:30.320Z,5.45
2023-03-21T04:11:30.372Z,5.44
2023-03-21T04:12:30.292Z,5.44
2023-03-21T04:13:30.305Z,5.44
2023-03-21T04:14:42.078Z,5.44
2023-03-21T04:15:30.265Z,5.45
2023-03-21T04:16:30.335Z,5.45
2023-03-21T04:17:30.241Z,5.45
2023-03-21T04:18:30.239Z,5.45
2023-03-21T04:19:30.224Z,5.46
2023-03-21T04:20:43.414Z,5.47
2023-03-21T04:21:30.311Z,5.48
2023-03-21T04:22:30.210Z,5.48
2023-03-21T04:23:30.183Z,5.48
2023-03-21T04:24:30.192Z,5.47
2023-03-21T04:25:33.732Z,5.47
2023-03-21T04:26:30.154Z,5.46
2023-03-21T04:27:30.158Z,5.46
2023-03-21T04:28:30.284Z,5.46
2023-03-21T04:29:30.126Z,5.46
2023-03-21T04:30:30.134Z,5.46
2023-03-21T04:31:30.187Z,5.46
2023-03-21T04:32:30.121Z,5.46
2023-03-21T04:33:30.079Z,5.45
2023-03-21T04:34:30.190Z,5.45
2023-03-21T04:35:30.061Z,5.45
2023-03-21T04:36:30.051Z,5.45
2023-03-21T04:37:30.119Z,5.45
2023-03-21T04:38:30.107Z,5.46
2023-03-21T04:39:30.038Z,5.46
2023-03-21T04:40:30.014Z,5.46
2023-03-21T04:41:30.075Z,5.47
2023-03-21T04:42:29.998Z,5.47
2023-03-21T04:43:29.980Z,5.47
2023-03-21T04:44:29.974Z,5.48
2023-03-21T04:45:29.985Z,5.48
2023-03-21T04:46:29.967Z,5.49
2023-03-21T04:47:29.960Z,5.49
2023-03-21T04:48:29.966Z,5.50
2023-03-21T04:49:29.920Z,5.51
2023-03-21T04:50:29.895Z,5.51
2023-03-21T04:51:29.917Z,5.52
2023-03-21T04:52:29.916Z,5.53
2023-03-21T04:53:30.004Z,5.53
2023-03-21T04:54:29.832Z,5.54
2023-03-21T04:55:29.812Z,5.55
2023-03-21T04:56:29.902Z,5.57
2023-03-21T04:57:29.832Z,5.58
2023-03-21T04:58:29.791Z,5.60
2023-03-21T04:59:29.894Z,5.61
2023-03-21T05:00:29.766Z,5.62
2023-03-21T05:01:29.839Z,5.62
2023-03-21T05:02:29.740Z,5.63
2023-03-21T05:03:30.336Z,5.63
2023-03-21T05:04:29.748Z,5.62
2023-03-21T05:05:29.704Z,5.61
2023-03-21T05:06:29.741Z,5.60
2023-03-21T05:07:29.677Z,5.59
2023-03-21T05:08:29.682Z,5.57
2023-03-21T05:09:29.685Z,5.55
2023-03-21T05:10:29.691Z,5.54
2023-03-21T05:11:29.640Z,5.53
2023-03-21T05:12:29.658Z,5.53
2023-03-21T05:13:29.622Z,5.53
2023-03-21T05:14:29.638Z,5.53
2023-03-21T05:15:29.741Z,5.52
2023-03-21T05:16:29.629Z,5.52
2023-03-21T05:17:29.587Z,5.52
2023-03-21T05:18:29.619Z,5.52
2023-03-21T05:19:29.623Z,5.51
2023-03-21T05:20:29.598Z,5.50
2023-03-21T05:21:29.716Z,5.50
2023-03-21T05:22:29.569Z,5.49
2023-03-21T05:23:29.536Z,5.49
2023-03-21T05:24:29.510Z,5.49
2023-03-21T05:25:29.503Z,5.50
2023-03-21T05:26:29.656Z,5.50
2023-03-21T05:27:29.480Z,5.50
2023-03-21T05:28:29.510Z,5.50
2023-03-21T05:29:29.502Z,5.51
2023-03-21T05:30:29.472Z,5.51
2023-03-21T05:31:29.438Z,5.52
2023-03-21T05:32:29.480Z,5.52
2023-03-21T05:33:29.468Z,5.51
2023-03-21T05:34:29.427Z,5.51
2023-03-21T05:35:29.403Z,5.51
2023-03-21T05:36:29.413Z,5.51
2023-03-21T05:37:29.372Z,5.51
2023-03-21T05:38:29.383Z,5.52
2023-03-21T05:39:29.400Z,5.53
2023-03-21T05:40:29.378Z,5.54
2023-03-21T05:41:29.351Z,5.54
2023-03-21T05:42:29.445Z,5.55
2023-03-21T05:43:29.329Z,5.55
2023-03-21T05:44:29.330Z,5.56
2023-03-21T05:45:29.302Z,5.56
2023-03-21T05:46:29.352Z,5.56
2023-03-21T05:47:29.423Z,5.56
2023-03-21T05:48:29.281Z,5.55
2023-03-21T05:49:29.255Z,5.53
2023-03-21T05:50:29.364Z,5.51
2023-03-21T05:51:29.244Z,5.50
2023-03-21T05:52:29.264Z,5.48
2023-03-21T05:53:29.268Z,5.47
2023-03-21T05:54:29.210Z,5.47
2023-03-21T05:55:29.223Z,5.46
2023-03-21T05:56:29.243Z,5.46
2023-03-21T05:57:29.204Z,5.46
2023-03-21T05:58:29.171Z,5.47
2023-03-21T05:59:29.232Z,5.48
2023-03-21T06:00:30.565Z,5.49
2023-03-21T06:01:29.164Z,5.50
2023-03-21T06:02:29.292Z,5.52
2023-03-21T06:03:29.178Z,5.54
2023-03-21T06:04:29.135Z,5.56
2023-03-21T06:05:29.106Z,5.58
2023-03-21T06:06:29.102Z,5.61
2023-03-21T06:07:29.073Z,5.63
2023-03-21T06:08:29.102Z,5.65
2023-03-21T06:09:29.157Z,5.67
2023-03-21T06:10:29.073Z,5.69
2023-03-21T06:11:29.078Z,5.71
2023-03-21T06:12:29.194Z,5.74
2023-03-21T06:13:29.046Z,5.76
2023-03-21T06:14:29.035Z,5.78
2023-03-21T06:15:29.169Z,5.81
2023-03-21T06:16:29.032Z,5.83
2023-03-21T06:17:28.989Z,5.85
2023-03-21T06:18:29.041Z,5.87
2023-03-21T06:19:28.978Z,5.90
2023-03-21T06:20:28.964Z,5.93
2023-03-21T06:21:29.252Z,5.95
2023-03-21T06:22:28.958Z,5.98
2023-03-21T06:23:28.913Z,6.02
2023-03-21T06:24:29.029Z,6.06
2023-03-21T06:25:28.919Z,6.10
2023-03-21T06:26:28.960Z,6.14
2023-03-21T06:27:29.048Z,6.18
2023-03-21T06:28:28.868Z,6.22
2023-03-21T06:29:28.853Z,6.25
2023-03-21T06:30:29.002Z,6.26
2023-03-21T06:31:28.885Z,6.27
2023-03-21T06:32:28.833Z,6.29
2023-03-21T06:33:28.945Z,6.32
2023-03-21T06:34:28.840Z,6.36
2023-03-21T06:35:28.835Z,6.40
2023-03-21T06:36:28.962Z,6.46
2023-03-21T06:37:28.779Z,6.52
2023-03-21T06:38:28.776Z,6.58
2023-03-21T06:39:28.942Z,6.64
2023-03-21T06:40:28.776Z,6.69
2023-03-21T06:41:28.741Z,6.74
2023-03-21T06:42:28.842Z,6.78
2023-03-21T06:43:28.743Z,6.80
2023-03-21T06:44:28.715Z,6.82
2023-03-21T06:45:28.750Z,6.86
2023-03-21T06:46:28.738Z,6.89
2023-03-21T06:47:28.682Z,6.92
2023-03-21T06:48:28.862Z,6.93
2023-03-21T06:49:28.729Z,6.94
2023-03-21T06:50:28.841Z,6.94
2023-03-21T06:51:28.647Z,6.93
2023-03-21T06:52:28.670Z,6.94
2023-03-21T06:53:28.609Z,6.97
2023-03-21T06:54:28.848Z,7.01
2023-03-21T06:55:28.597Z,7.05
2023-03-21T06:56:28.602Z,7.07
2023-03-21T06:57:28.917Z,7.07
2023-03-21T06:58:28.579Z,7.08
2023-03-21T06:59:28.559Z,7.08
2023-03-21T07:00:28.613Z,7.10
2023-03-21T07:01:28.533Z,7.14
2023-03-21T07:02:28.612Z,7.18
2023-03-21T07:03:28.517Z,7.23
2023-03-21T07:04:28.520Z,7.27
2023-03-21T07:05:28.495Z,7.31
2023-03-21T07:06:28.512Z,7.34
2023-03-21T07:07:28.470Z,7.38
2023-03-21T07:08:28.500Z,7.40
2023-03-21T07:09:28.479Z,7.43
2023-03-21T07:10:28.454Z,7.45
2023-03-21T07:11:28.537Z,7.47
2023-03-21T07:12:28.432Z,7.50
2023-03-21T07:13:28.444Z,7.50
2023-03-21T07:14:28.412Z,7.48
2023-03-21T07:15:28.460Z,7.48
2023-03-21T07:16:28.485Z,7.49
2023-03-21T07:17:28.382Z,7.51
2023-03-21T07:18:28.375Z,7.53
2023-03-21T07:19:28.407Z,7.53
2023-03-21T07:20:28.385Z,7.53
2023-03-21T07:21:28.367Z,7.55
2023-03-21T07:22:28.334Z,7.59
2023-03-21T07:23:28.321Z,7.64
2023-03-21T07:24:28.346Z,7.69
2023-03-21T07:25:28.373Z,7.74
2023-03-21T07:26:28.322Z,7.76
2023-03-21T07:27:28.293Z,7.78
2023-03-21T07:28:28.282Z,7.80
2023-03-21T07:29:28.297Z,7.82
2023-03-21T07:30:28.277Z,7.84
2023-03-21T07:31:28.289Z,7.85
2023-03-21T07:32:28.286Z,7.88
2023-03-21T07:33:28.216Z,7.91
2023-03-21T07:34:28.213Z,7.96
2023-03-21T07:35:28.202Z,8.01
2023-03-21T07:36:28.253Z,8.06
2023-03-21T07:37:28.167Z,8.11
2023-03-21T07:38:28.221Z,8.16
2023-03-21T07:39:28.176Z,8.20
2023-03-21T07:40:28.152Z,8.24
2023-03-21T07:41:28.139Z,8.26
2023-03-21T07:42:28.175Z,8.28
2023-03-21T07:43:28.143Z,8.31
2023-03-21T07:44:28.112Z,8.36
2023-03-21T07:45:28.083Z,8.42
2023-03-21T07:46:28.116Z,8.51
2023-03-21T07:47:28.100Z,8.60
2023-03-21T07:48:28.055Z,8.67
2023-03-21T07:49:28.139Z,8.71
2023-03-21T07:50:28.052Z,8.71
2023-03-21T07:51:28.051Z,8.69
2023-03-21T07:52:28.044Z,8.68
2023-03-21T07:53:28.008Z,8.70
2023-03-21T07:54:27.998Z,8.73
2023-03-21T07:55:28.047Z,8.77
2023-03-21T07:56:27.990Z,8.81
2023-03-21T07:57:27.995Z,8.84
2023-03-21T07:58:27.967Z,8.87
2023-03-21T07:59:27.964Z,8.92
2023-03-21T08:00:27.979Z,8.97
2023-03-21T08:01:27.955Z,9.03
2023-03-21T08:02:28.034Z,9.10
2023-03-21T08:03:28.020Z,9.16
2023-03-21T08:04:27.932Z,9.21
2023-03-21T08:05:27.899Z,9.25
2023-03-21T08:06:27.890Z,9.29
2023-03-21T08:07:27.869Z,9.32
2023-03-21T08:08:27.856Z,9.33
2023-03-21T08:09:29.612Z,9.33
2023-03-21T08:10:27.935Z,9.32
2023-03-21T08:11:27.819Z,9.32
2023-03-21T08:12:27.804Z,9.32
2023-03-21T08:13:27.839Z,9.35
2023-03-21T08:14:27.838Z,9.37
2023-03-21T08:15:27.823Z,9.38
2023-03-21T08:16:27.811Z,9.37
2023-03-21T08:17:27.760Z,9.39
2023-03-21T08:18:27.748Z,9.42
2023-03-21T08:19:27.805Z,9.45
2023-03-21T08:20:27.840Z,9.49
2023-03-21T08:21:27.780Z,9.55
2023-03-21T08:22:27.730Z,9.62
2023-03-21T08:23:27.752Z,9.66
2023-03-21T08:24:27.715Z,9.68
2023-03-21T08:25:27.694Z,9.69
2023-03-21T08:26:27.702Z,9.69
2023-03-21T08:27:27.716Z,9.68
2023-03-21T08:28:27.662Z,9.71
2023-03-21T08:29:27.644Z,9.75
2023-03-21T08:30:27.776Z,9.76
2023-03-21T08:31:27.655Z,9.75
2023-03-21T08:32:27.617Z,9.74
2023-03-21T08:33:27.633Z,9.73
2023-03-21T08:34:27.627Z,9.74
2023-03-21T08:35:27.598Z,9.77
2023-03-21T08:36:27.590Z,9.81
2023-03-21T08:37:27.552Z,9.86
2023-03-21T08:38:27.578Z,9.93
2023-03-21T08:39:27.669Z,9.98
2023-03-21T08:40:27.528Z,10.00
2023-03-21T08:41:27.538Z,10.03
2023-03-21T08:42:27.535Z,10.05
2023-03-21T08:43:27.497Z,10.06
2023-03-21T08:44:27.496Z,10.04
2023-03-21T08:45:27.532Z,10.06
2023-03-21T08:46:27.596Z,10.10
2023-03-21T08:47:27.505Z,10.13
2023-03-21T08:48:27.448Z,10.17
2023-03-21T08:49:27.440Z,10.22
2023-03-21T08:50:27.430Z,10.29
2023-03-21T08:51:27.435Z,10.35
2023-03-21T08:52:27.404Z,10.40
2023-03-21T08:53:27.436Z,10.44
2023-03-21T08:54:27.415Z,10.46
2023-03-21T08:55:27.413Z,10.47
2023-03-21T08:56:27.382Z,10.49
2023-03-21T08:57:27.358Z,10.50
2023-03-21T08:58:27.365Z,10.52
2023-03-21T08:59:27.556Z,10.58
2023-03-21T09:00:27.321Z,10.65
2023-03-21T09:01:27.424Z,10.68
2023-03-21T09:02:27.302Z,10.65
2023-03-21T09:03:27.370Z,10.59
2023-03-21T09:04:27.382Z,10.51
2023-03-21T09:05:27.289Z,10.43
2023-03-21T09:06:27.288Z,10.38
2023-03-21T09:07:27.246Z,10.37
2023-03-21T09:08:27.258Z,10.39
2023-03-21T09:09:27.245Z,10.43
2023-03-21T09:10:27.373Z,10.49
2023-03-21T09:11:27.237Z,10.59
2023-03-21T09:12:27.213Z,10.69
2023-03-21T09:13:27.332Z,10.80
2023-03-21T09:14:29.165Z,10.92
2023-03-21T09:15:27.193Z,11.03
2023-03-21T09:16:27.231Z,11.07
2023-03-21T09:17:27.166Z,11.07
2023-03-21T09:18:27.152Z,11.07
2023-03-21T09:19:27.141Z,11.08
2023-03-21T09:20:27.124Z,11.09
2023-03-21T09:21:27.141Z,11.07
2023-03-21T09:22:27.092Z,11.07
2023-03-21T09:23:27.123Z,11.08
2023-03-21T09:24:27.084Z,11.10
2023-03-21T09:25:27.090Z,11.14
2023-03-21T09:26:27.073Z,11.20
2023-03-21T09:27:27.084Z,11.25
2023-03-21T09:28:27.033Z,11.32
2023-03-21T09:29:27.040Z,11.40
2023-03-21T09:30:27.223Z,11.48
2023-03-21T09:31:27.023Z,11.56
2023-03-21T09:32:27.052Z,11.62
2023-03-21T09:33:26.992Z,11.67
2023-03-21T09:34:27.033Z,11.70
2023-03-21T09:35:27.070Z,11.74
2023-03-21T09:36:26.952Z,11.69
2023-03-21T09:37:26.940Z,11.54
2023-03-21T09:38:26.932Z,11.45
2023-03-21T09:39:26.936Z,11.44
2023-03-21T09:40:26.918Z,11.47
2023-03-21T09:41:26.947Z,11.51
2023-03-21T09:42:26.919Z,11.54
2023-03-21T09:43:26.883Z,11.53
2023-03-21T09:44:26.950Z,11.51
2023-03-21T09:45:26.875Z,11.51
2023-03-21T09:46:26.975Z,11.55
2023-03-21T09:47:26.861Z,11.61
2023-03-21T09:48:26.873Z,11.69
2023-03-21T09:49:26.830Z,11.77
2023-03-21T09:50:26.803Z,11.85
2023-03-21T09:51:26.815Z,11.93
2023-03-21T09:52:26.790Z,11.97
2023-03-21T09:53:26.780Z,11.93
2023-03-21T09:54:26.793Z,11.86
2023-03-21T09:55:26.788Z,11.79
2023-03-21T09:56:26.766Z,11.70
2023-03-21T09:57:26.805Z,11.65
2023-03-21T09:58:26.761Z,11.61
2023-03-21T09:59:26.725Z,11.61
2023-03-21T10:00:26.722Z,11.66
2023-03-21T10:01:26.763Z,11.73
2023-03-21T10:02:26.700Z,11.79
2023-03-21T10:03:26.701Z,11.86
2023-03-21T10:04:26.705Z,11.95
2023-03-21T10:05:26.674Z,12.00
2023-03-21T10:06:26.657Z,11.93
2023-03-21T10:07:26.665Z,11.78
2023-03-21T10:08:26.659Z,11.66
2023-03-21T10:09:26.637Z,11.63
2023-03-21T10:10:26.620Z,11.70
2023-03-21T10:11:26.588Z,11.80
2023-03-21T10:12:26.603Z,11.92
2023-03-21T10:13:26.576Z,12.11
2023-03-21T10:14:26.562Z,12.33
2023-03-21T10:15:26.687Z,12.50
2023-03-21T10:16:26.574Z,12.66
2023-03-21T10:17:26.551Z,12.76
2023-03-21T10:18:26.510Z,12.82
2023-03-21T10:19:26.525Z,12.92
2023-03-21T10:20:26.514Z,13.00
2023-03-21T10:22:25.489Z,13.14
2023-03-21T10:23:26.480Z,13.21
2023-03-21T10:24:26.448Z,13.30
2023-03-21T10:25:26.449Z,13.43
2023-03-21T10:26:26.444Z,13.63
2023-03-21T10:27:26.471Z,13.86
2023-03-21T10:28:26.417Z,14.06
2023-03-21T10:29:26.467Z,14.12
2023-03-21T10:30:26.405Z,13.99
2023-03-21T10:31:26.468Z,13.79
2023-03-21T10:32:26.369Z,13.67
2023-03-21T10:33:26.363Z,13.54
2023-03-21T10:34:26.370Z,13.35
2023-03-21T10:35:26.346Z,13.09
2023-03-21T10:36:26.329Z,12.86
2023-03-21T10:37:26.355Z,12.82
2023-03-21T10:38:26.310Z,12.94
2023-03-21T10:39:26.310Z,13.12
2023-03-21T10:40:26.291Z,13.35
2023-03-21T10:41:26.318Z,13.55
2023-03-21T10:42:26.265Z,13.64
2023-03-21T10:43:26.320Z,13.64
2023-03-21T10:44:26.250Z,13.61
2023-03-21T10:45:26.246Z,13.58
2023-03-21T10:46:26.434Z,13.52
2023-03-21T10:47:26.435Z,13.45
2023-03-21T10:48:26.406Z,13.46
2023-03-21T10:49:26.213Z,13.54
2023-03-21T10:50:26.239Z,13.62
2023-03-21T10:51:26.191Z,13.56
2023-03-21T10:52:26.169Z,13.45
2023-03-21T10:53:26.614Z,13.43
2023-03-21T10:54:26.922Z,13.56
2023-03-21T10:55:26.154Z,13.71
2023-03-21T10:56:26.138Z,13.81
2023-03-21T10:57:26.116Z,13.83
2023-03-21T10:58:26.128Z,13.76
2023-03-21T10:59:26.109Z,13.74
2023-03-21T11:00:26.107Z,13.77
2023-03-21T11:01:26.232Z,13.78
2023-03-21T11:02:26.115Z,13.78
2023-03-21T11:03:26.073Z,13.84
2023-03-21T11:04:26.053Z,13.94
2023-03-21T11:05:26.081Z,14.10
2023-03-21T11:06:26.035Z,14.25
2023-03-21T11:07:26.042Z,14.36
2023-03-21T11:08:26.036Z,14.38
2023-03-21T11:09:26.043Z,14.34
2023-03-21T11:10:28.900Z,14.25
2023-03-21T11:11:26.018Z,14.17
2023-03-21T11:12:25.994Z,14.21
2023-03-21T11:13:26.009Z,14.32
2023-03-21T11:14:26.043Z,14.39
2023-03-21T11:15:25.944Z,14.38
2023-03-21T11:16:26.005Z,14.41
2023-03-21T11:17:26.037Z,14.56
2023-03-21T11:18:25.989Z,14.74
2023-03-21T11:19:25.942Z,14.74
2023-03-21T11:20:25.951Z,14.58
2023-03-21T11:21:25.909Z,14.41
2023-03-21T11:22:25.924Z,14.31
2023-03-21T11:23:25.876Z,14.31
2023-03-21T11:24:25.857Z,14.33
2023-03-21T11:25:25.893Z,14.17
2023-03-21T11:26:25.894Z,13.91
2023-03-21T11:27:25.853Z,13.68
2023-03-21T11:28:25.867Z,13.49
2023-03-21T11:29:25.877Z,13.36
2023-03-21T11:30:25.827Z,13.27
2023-03-21T11:31:25.844Z,13.23
2023-03-21T11:32:25.765Z,13.33
2023-03-21T11:33:25.791Z,13.49
2023-03-21T11:34:25.745Z,13.55
2023-03-21T11:35:25.752Z,13.44
2023-03-21T11:36:25.743Z,13.36
2023-03-21T11:37:25.755Z,13.45
2023-03-21T11:38:25.734Z,13.60
2023-03-21T11:39:25.706Z,13.64
2023-03-21T11:40:25.723Z,13.63
2023-03-21T11:41:25.695Z,13.64
2023-03-21T11:42:25.678Z,13.65
2023-03-21T11:43:25.729Z,13.78
2023-03-21T11:44:25.657Z,14.00
2023-03-21T11:45:25.644Z,14.22
2023-03-21T11:46:25.699Z,14.54
2023-03-21T11:47:25.622Z,14.90
2023-03-21T11:48:25.805Z,15.21
2023-03-21T11:49:25.643Z,15.49
2023-03-21T11:50:25.592Z,15.74
2023-03-21T11:51:25.578Z,15.78
2023-03-21T11:52:25.573Z,15.58
2023-03-21T11:53:25.587Z,15.32
2023-03-21T11:54:25.573Z,15.29
2023-03-21T11:55:25.585Z,15.56
2023-03-21T11:56:25.522Z,15.92
2023-03-21T11:57:25.518Z,16.27
2023-03-21T11:58:25.642Z,16.50
2023-03-21T11:59:25.524Z,16.63
2023-03-21T12:00:25.516Z,16.69
2023-03-21T12:01:25.508Z,16.71
2023-03-21T12:02:25.573Z,16.61
2023-03-21T12:03:26.277Z,16.33
2023-03-21T12:04:25.533Z,16.01
2023-03-21T12:05:25.479Z,15.84
2023-03-21T12:06:25.423Z,15.78
2023-03-21T12:07:25.425Z,15.72
2023-03-21T12:08:25.421Z,15.63
2023-03-21T12:09:25.394Z,15.67
2023-03-21T12:10:25.397Z,15.90
2023-03-21T12:11:25.390Z,16.22
2023-03-21T12:12:36.553Z,16.58
2023-03-21T12:13:25.421Z,16.72
2023-03-21T12:14:25.369Z,16.59
2023-03-21T12:15:25.401Z,16.32
2023-03-21T12:16:25.460Z,15.96
2023-03-21T12:17:25.326Z,15.65
2023-03-21T12:18:25.347Z,15.44
2023-03-21T12:19:25.327Z,15.37
2023-03-21T12:20:25.315Z,15.38
2023-03-21T12:21:25.295Z,15.46
2023-03-21T12:22:25.273Z,15.66
2023-03-21T12:23:25.362Z,15.86
2023-03-21T12:24:25.258Z,15.88
2023-03-21T12:25:25.276Z,15.91
2023-03-21T12:26:25.233Z,16.01
2023-03-21T12:27:25.255Z,16.13
2023-03-21T12:28:32.469Z,16.21
2023-03-21T12:29:25.197Z,16.26
2023-03-21T12:30:25.190Z,16.23
2023-03-21T12:31:25.281Z,16.07
2023-03-21T12:32:25.188Z,15.79
2023-03-21T12:33:25.175Z,15.50
2023-03-21T12:34:25.147Z,15.27
2023-03-21T12:35:25.159Z,15.12
2023-03-21T12:36:25.196Z,15.03
2023-03-21T12:37:25.118Z,15.03
2023-03-21T12:38:25.116Z,15.15
2023-03-21T12:39:25.093Z,15.25
2023-03-21T12:40:25.090Z,15.10
2023-03-21T12:41:25.073Z,14.90
2023-03-21T12:42:25.077Z,14.81
2023-03-21T12:43:25.062Z,14.83
2023-03-21T12:44:25.052Z,14.87
2023-03-21T12:45:26.089Z,14.87
2023-03-21T12:46:25.088Z,14.87
2023-03-21T12:47:25.057Z,14.81
2023-03-21T12:48:25.094Z,14.77
2023-03-21T12:49:24.996Z,14.85
2023-03-21T12:50:25.007Z,15.06
2023-03-21T12:51:24.995Z,15.37
2023-03-21T12:52:24.965Z,15.69
2023-03-21T12:53:24.977Z,15.80
2023-03-21T12:54:24.956Z,15.49
2023-03-21T12:55:24.952Z,15.08
2023-03-21T12:56:24.912Z,14.75
2023-03-21T12:57:24.935Z,14.54
2023-03-21T12:58:24.974Z,14.49
2023-03-21T12:59:24.990Z,14.54
2023-03-21T13:00:24.974Z,14.58
2023-03-21T13:01:25.006Z,14.66
2023-03-21T13:02:24.862Z,14.76
2023-03-21T13:03:33.587Z,14.83
2023-03-21T13:04:24.994Z,14.89
2023-03-21T13:05:24.855Z,14.84
2023-03-21T13:06:24.843Z,14.73
2023-03-21T13:07:24.880Z,14.70
2023-03-21T13:08:24.794Z,14.72
2023-03-21T13:09:36.881Z,14.77
2023-03-21T13:10:24.783Z,14.82